sensor_id;sensor_type;location;lat;lon;timestamp;P1;durP1;ratioP1;P2;durP2;ratioP2
17079;SDS011;8655;57.106;-2.088;2023-04-01T00:02:18;2.87;;;1.40;;
17079;SDS011;8655;57.106;-2.088;2023-04-01T00:04:43;2.80;;;1.40;;
17079;SDS011;8655;57.106;-2.088;2023-04-01T00:07:09;3.03;;;1.60;;
17079;SDS011;8655;57.106;-2.088;2023-04-01T00:09:35;3.63;;;1.50;;
17079;SDS011;8655;57.106;-2.088;2023-04-01T00:12:01;3.57;;;1.60;;
17079;SDS011;8655;57.106;-2.088;2023-04-01T00:14:27;2.77;;;1.30;;
17079;SDS011;8655;57.106;-2.088;2023-04-01T00:16:53;3.93;;;1.50;;
17079;SDS011;8655;57.106;-2.088;2023-04-01T00:19:19;4.47;;;1.70;;
17079;SDS011;8655;57.106;-2.088;2023-04-01T00:21:45;2.93;;;1.27;;
17079;SDS011;8655;57.106;-2.088;2023-04-01T00:24:11;3.13;;;1.57;;
17079;SDS011;8655;57.106;-2.088;2023-04-01T00:26:37;3.50;;;1.50;;
17079;SDS011;8655;57.106;-2.088;2023-04-01T00:29:02;2.90;;;1.40;;
17079;SDS011;8655;57.106;-2.088;2023-04-01T00:31:28;2.73;;;1.33;;
17079;SDS011;8655;57.106;-2.088;2023-04-01T00:33:55;3.00;;;1.40;;
17079;SDS011;8655;57.106;-2.088;2023-04-01T00:36:21;3.83;;;1.70;;
17079;SDS011;8655;57.106;-2.088;2023-04-01T00:38:48;1.90;;;1.40;;
17079;SDS011;8655;57.106;-2.088;2023-04-01T00:41:14;2.67;;;1.40;;
17079;SDS011;8655;57.106;-2.088;2023-04-01T00:43:42;2.03;;;1.43;;
17079;SDS011;8655;57.106;-2.088;2023-04-01T00:46:09;2.73;;;1.43;;
17079;SDS011;8655;57.106;-2.088;2023-04-01T00:48:36;3.63;;;1.47;;
17079;SDS011;8655;57.106;-2.088;2023-04-01T00:51:10;2.60;;;1.30;;
17079;SDS011;8655;57.106;-2.088;2023-04-01T00:53:43;2.90;;;1.10;;
17079;SDS011;8655;57.106;-2.088;2023-04-01T00:56:13;2.83;;;1.60;;
17079;SDS011;8655;57.106;-2.088;2023-04-01T00:58:49;3.80;;;1.60;;
17079;SDS011;8655;57.106;-2.088;2023-04-01T01:01:18;3.83;;;1.43;;
17079;SDS011;8655;57.106;-2.088;2023-04-01T01:03:46;1.93;;;1.10;;
17079;SDS011;8655;57.106;-2.088;2023-04-01T01:12:18;2.63;;;1.30;;
17079;SDS011;8655;57.106;-2.088;2023-04-01T01:17:19;2.33;;;1.57;;
17079;SDS011;8655;57.106;-2.088;2023-04-01T01:36:16;2.83;;;1.40;;
17079;SDS011;8655;57.106;-2.088;2023-04-01T01:38:43;2.27;;;1.37;;
17079;SDS011;8655;57.106;-2.088;2023-04-01T01:41:11;2.63;;;1.53;;
17079;SDS011;8655;57.106;-2.088;2023-04-01T01:43:40;2.87;;;1.30;;
17079;SDS011;8655;57.106;-2.088;2023-04-01T01:46:11;2.40;;;1.53;;
17079;SDS011;8655;57.106;-2.088;2023-04-01T01:48:41;3.03;;;1.60;;
17079;SDS011;8655;57.106;-2.088;2023-04-01T01:51:08;2.70;;;1.50;;
17079;SDS011;8655;57.106;-2.088;2023-04-01T01:53:34;4.30;;;1.80;;
17079;SDS011;8655;57.106;-2.088;2023-04-01T01:56:00;2.53;;;1.47;;
17079;SDS011;8655;57.106;-2.088;2023-04-01T01:58:36;2.70;;;1.63;;
17079;SDS011;8655;57.106;-2.088;2023-04-01T02:01:17;3.73;;;1.60;;
17079;SDS011;8655;57.106;-2.088;2023-04-01T02:03:47;2.53;;;1.43;;
17079;SDS011;8655;57.106;-2.088;2023-04-01T02:06:15;2.37;;;1.50;;
17079;SDS011;8655;57.106;-2.088;2023-04-01T02:08:47;3.03;;;1.43;;
17079;SDS011;8655;57.106;-2.088;2023-04-01T02:11:26;3.00;;;1.33;;
17079;SDS011;8655;57.106;-2.088;2023-04-01T02:14:16;2.30;;;1.40;;
17079;SDS011;8655;57.106;-2.088;2023-04-01T02:17:11;1.87;;;1.40;;
17079;SDS011;8655;57.106;-2.088;2023-04-01T02:19:49;2.50;;;1.37;;
17079;SDS011;8655;57.106;-2.088;2023-04-01T02:22:20;3.93;;;1.80;;
17079;SDS011;8655;57.106;-2.088;2023-04-01T02:24:56;3.40;;;1.90;;
17079;SDS011;8655;57.106;-2.088;2023-04-01T02:27:24;2.90;;;1.40;;
17079;SDS011;8655;57.106;-2.088;2023-04-01T02:29:50;2.50;;;1.50;;
17079;SDS011;8655;57.106;-2.088;2023-04-01T02:32:17;2.43;;;1.40;;
17079;SDS011;8655;57.106;-2.088;2023-04-01T02:34:45;2.83;;;1.30;;
17079;SDS011;8655;57.106;-2.088;2023-04-01T02:37:11;3.63;;;1.97;;
17079;SDS011;8655;57.106;-2.088;2023-04-01T02:39:39;3.10;;;1.70;;
17079;SDS011;8655;57.106;-2.088;2023-04-01T02:42:05;4.40;;;1.80;;
17079;SDS011;8655;57.106;-2.088;2023-04-01T02:44:31;2.60;;;1.50;;
17079;SDS011;8655;57.106;-2.088;2023-04-01T02:46:56;2.40;;;1.50;;
17079;SDS011;8655;57.106;-2.088;2023-04-01T02:49:22;2.70;;;1.30;;
17079;SDS011;8655;57.106;-2.088;2023-04-01T02:51:48;3.17;;;1.50;;
17079;SDS011;8655;57.106;-2.088;2023-04-01T02:54:13;3.47;;;1.47;;
17079;SDS011;8655;57.106;-2.088;2023-04-01T02:56:39;3.93;;;1.50;;
17079;SDS011;8655;57.106;-2.088;2023-04-01T02:59:05;2.87;;;1.70;;
17079;SDS011;8655;57.106;-2.088;2023-04-01T03:01:31;2.90;;;1.47;;
17079;SDS011;8655;57.106;-2.088;2023-04-01T03:03:57;3.03;;;1.60;;
17079;SDS011;8655;57.106;-2.088;2023-04-01T03:06:22;3.37;;;1.70;;
17079;SDS011;8655;57.106;-2.088;2023-04-01T03:08:48;3.07;;;1.37;;
17079;SDS011;8655;57.106;-2.088;2023-04-01T03:11:13;3.27;;;1.60;;
17079;SDS011;8655;57.106;-2.088;2023-04-01T03:13:39;3.17;;;1.50;;
17079;SDS011;8655;57.106;-2.088;2023-04-01T03:16:05;2.77;;;1.57;;
17079;SDS011;8655;57.106;-2.088;2023-04-01T03:18:31;2.77;;;1.60;;
17079;SDS011;8655;57.106;-2.088;2023-04-01T03:20:57;3.53;;;1.70;;
17079;SDS011;8655;57.106;-2.088;2023-04-01T03:23:22;2.43;;;1.70;;
17079;SDS011;8655;57.106;-2.088;2023-04-01T03:25:49;3.07;;;1.97;;
17079;SDS011;8655;57.106;-2.088;2023-04-01T03:28:15;4.17;;;1.63;;
17079;SDS011;8655;57.106;-2.088;2023-04-01T03:30:41;2.03;;;1.30;;
17079;SDS011;8655;57.106;-2.088;2023-04-01T03:33:06;3.57;;;1.77;;
17079;SDS011;8655;57.106;-2.088;2023-04-01T03:35:32;4.03;;;1.57;;
17079;SDS011;8655;57.106;-2.088;2023-04-01T03:37:58;3.80;;;1.67;;
17079;SDS011;8655;57.106;-2.088;2023-04-01T03:40:24;3.67;;;1.60;;
17079;SDS011;8655;57.106;-2.088;2023-04-01T03:42:51;4.63;;;1.90;;
17079;SDS011;8655;57.106;-2.088;2023-04-01T03:45:17;3.57;;;1.43;;
17079;SDS011;8655;57.106;-2.088;2023-04-01T03:47:43;3.77;;;1.50;;
17079;SDS011;8655;57.106;-2.088;2023-04-01T03:50:09;3.67;;;1.70;;
17079;SDS011;8655;57.106;-2.088;2023-04-01T03:52:35;3.43;;;1.83;;
17079;SDS011;8655;57.106;-2.088;2023-04-01T03:55:01;2.80;;;1.60;;
17079;SDS011;8655;57.106;-2.088;2023-04-01T03:57:27;2.60;;;1.53;;
17079;SDS011;8655;57.106;-2.088;2023-04-01T03:59:52;3.87;;;1.47;;
17079;SDS011;8655;57.106;-2.088;2023-04-01T04:02:18;2.57;;;1.40;;
17079;SDS011;8655;57.106;-2.088;2023-04-01T04:04:44;3.63;;;1.60;;
17079;SDS011;8655;57.106;-2.088;2023-04-01T04:07:11;2.93;;;1.47;;
17079;SDS011;8655;57.106;-2.088;2023-04-01T04:09:37;4.07;;;1.80;;
17079;SDS011;8655;57.106;-2.088;2023-04-01T04:12:03;2.63;;;1.33;;
17079;SDS011;8655;57.106;-2.088;2023-04-01T04:14:30;3.93;;;1.43;;
17079;SDS011;8655;57.106;-2.088;2023-04-01T04:16:56;3.40;;;1.70;;
17079;SDS011;8655;57.106;-2.088;2023-04-01T04:19:22;3.30;;;1.70;;
17079;SDS011;8655;57.106;-2.088;2023-04-01T04:21:47;5.23;;;1.73;;
17079;SDS011;8655;57.106;-2.088;2023-04-01T04:24:13;3.40;;;1.93;;
17079;SDS011;8655;57.106;-2.088;2023-04-01T04:26:39;2.77;;;1.67;;
17079;SDS011;8655;57.106;-2.088;2023-04-01T04:29:04;3.57;;;1.70;;
17079;SDS011;8655;57.106;-2.088;2023-04-01T04:31:30;4.53;;;1.70;;
17079;SDS011;8655;57.106;-2.088;2023-04-01T04:33:56;2.53;;;1.60;;
17079;SDS011;8655;57.106;-2.088;2023-04-01T04:36:23;3.27;;;1.40;;
17079;SDS011;8655;57.106;-2.088;2023-04-01T04:38:49;2.80;;;1.63;;
17079;SDS011;8655;57.106;-2.088;2023-04-01T04:41:15;3.27;;;1.57;;
17079;SDS011;8655;57.106;-2.088;2023-04-01T04:43:48;3.30;;;1.70;;
17079;SDS011;8655;57.106;-2.088;2023-04-01T04:46:18;3.43;;;1.60;;
17079;SDS011;8655;57.106;-2.088;2023-04-01T04:48:45;3.37;;;1.83;;
17079;SDS011;8655;57.106;-2.088;2023-04-01T04:51:14;3.43;;;1.57;;
17079;SDS011;8655;57.106;-2.088;2023-04-01T04:53:41;5.03;;;2.00;;
17079;SDS011;8655;57.106;-2.088;2023-04-01T04:56:06;3.20;;;1.80;;
17079;SDS011;8655;57.106;-2.088;2023-04-01T04:58:32;3.50;;;1.80;;
17079;SDS011;8655;57.106;-2.088;2023-04-01T05:00:58;3.93;;;2.13;;
17079;SDS011;8655;57.106;-2.088;2023-04-01T05:03:24;3.20;;;1.50;;
17079;SDS011;8655;57.106;-2.088;2023-04-01T05:05:51;3.73;;;1.67;;
17079;SDS011;8655;57.106;-2.088;2023-04-01T05:08:17;3.93;;;1.80;;
17079;SDS011;8655;57.106;-2.088;2023-04-01T05:10:43;4.00;;;1.70;;
17079;SDS011;8655;57.106;-2.088;2023-04-01T05:13:09;4.03;;;1.53;;
17079;SDS011;8655;57.106;-2.088;2023-04-01T05:15:35;4.03;;;1.83;;
17079;SDS011;8655;57.106;-2.088;2023-04-01T05:18:02;3.00;;;1.77;;
17079;SDS011;8655;57.106;-2.088;2023-04-01T05:20:28;3.57;;;1.67;;
17079;SDS011;8655;57.106;-2.088;2023-04-01T05:22:57;3.63;;;1.70;;
17079;SDS011;8655;57.106;-2.088;2023-04-01T05:25:23;2.83;;;1.47;;
17079;SDS011;8655;57.106;-2.088;2023-04-01T05:27:48;4.53;;;2.00;;
17079;SDS011;8655;57.106;-2.088;2023-04-01T05:30:14;2.97;;;1.70;;
17079;SDS011;8655;57.106;-2.088;2023-04-01T05:32:40;3.33;;;1.70;;
17079;SDS011;8655;57.106;-2.088;2023-04-01T05:35:06;3.53;;;1.77;;
17079;SDS011;8655;57.106;-2.088;2023-04-01T05:37:35;3.47;;;1.77;;
17079;SDS011;8655;57.106;-2.088;2023-04-01T05:40:02;4.20;;;1.83;;
17079;SDS011;8655;57.106;-2.088;2023-04-01T05:42:28;3.67;;;1.80;;
17079;SDS011;8655;57.106;-2.088;2023-04-01T05:44:54;3.53;;;1.70;;
17079;SDS011;8655;57.106;-2.088;2023-04-01T05:47:20;3.87;;;1.87;;
17079;SDS011;8655;57.106;-2.088;2023-04-01T05:49:47;2.67;;;1.53;;
17079;SDS011;8655;57.106;-2.088;2023-04-01T05:52:13;3.63;;;1.63;;
17079;SDS011;8655;57.106;-2.088;2023-04-01T05:54:39;3.13;;;1.73;;
17079;SDS011;8655;57.106;-2.088;2023-04-01T05:57:05;3.53;;;1.53;;
17079;SDS011;8655;57.106;-2.088;2023-04-01T05:59:31;3.47;;;1.60;;
17079;SDS011;8655;57.106;-2.088;2023-04-01T06:01:57;3.53;;;1.80;;
17079;SDS011;8655;57.106;-2.088;2023-04-01T06:04:23;2.90;;;1.60;;
17079;SDS011;8655;57.106;-2.088;2023-04-01T06:06:49;3.50;;;1.50;;
17079;SDS011;8655;57.106;-2.088;2023-04-01T06:09:17;3.73;;;1.73;;
17079;SDS011;8655;57.106;-2.088;2023-04-01T06:20:03;4.43;;;2.00;;
17079;SDS011;8655;57.106;-2.088;2023-04-01T06:22:45;3.97;;;1.60;;
17079;SDS011;8655;57.106;-2.088;2023-04-01T06:28:21;3.73;;;1.80;;
17079;SDS011;8655;57.106;-2.088;2023-04-01T06:36:15;5.07;;;1.70;;
17079;SDS011;8655;57.106;-2.088;2023-04-01T06:38:50;4.93;;;1.83;;
17079;SDS011;8655;57.106;-2.088;2023-04-01T06:47:27;4.07;;;2.03;;
17079;SDS011;8655;57.106;-2.088;2023-04-01T06:58:00;5.07;;;2.07;;
17079;SDS011;8655;57.106;-2.088;2023-04-01T07:03:00;3.30;;;1.70;;
17079;SDS011;8655;57.106;-2.088;2023-04-01T07:05:28;5.60;;;2.00;;
17079;SDS011;8655;57.106;-2.088;2023-04-01T07:07:57;4.20;;;1.80;;
17079;SDS011;8655;57.106;-2.088;2023-04-01T07:10:47;6.37;;;2.13;;
17079;SDS011;8655;57.106;-2.088;2023-04-01T07:13:25;4.53;;;1.90;;
17079;SDS011;8655;57.106;-2.088;2023-04-01T07:18:47;5.40;;;2.40;;
17079;SDS011;8655;57.106;-2.088;2023-04-01T07:21:26;7.30;;;2.53;;
17079;SDS011;8655;57.106;-2.088;2023-04-01T07:23:56;4.13;;;1.97;;
17079;SDS011;8655;57.106;-2.088;2023-04-01T07:26:26;4.63;;;2.13;;
17079;SDS011;8655;57.106;-2.088;2023-04-01T07:28:52;4.47;;;2.17;;
17079;SDS011;8655;57.106;-2.088;2023-04-01T07:31:20;4.20;;;2.07;;
17079;SDS011;8655;57.106;-2.088;2023-04-01T07:34:01;3.33;;;1.63;;
17079;SDS011;8655;57.106;-2.088;2023-04-01T07:36:42;4.57;;;2.20;;
17079;SDS011;8655;57.106;-2.088;2023-04-01T07:39:36;4.10;;;1.87;;
17079;SDS011;8655;57.106;-2.088;2023-04-01T07:45:02;4.70;;;2.03;;
17079;SDS011;8655;57.106;-2.088;2023-04-01T07:50:38;4.13;;;1.97;;
17079;SDS011;8655;57.106;-2.088;2023-04-01T07:58:36;4.53;;;2.00;;
17079;SDS011;8655;57.106;-2.088;2023-04-01T08:06:13;5.00;;;2.30;;
17079;SDS011;8655;57.106;-2.088;2023-04-01T08:20:57;4.55;;;1.83;;
17079;SDS011;8655;57.106;-2.088;2023-04-01T08:23:19;5.73;;;2.17;;
17079;SDS011;8655;57.106;-2.088;2023-04-01T08:26:06;6.68;;;2.33;;
17079;SDS011;8655;57.106;-2.088;2023-04-01T08:28:41;5.50;;;2.33;;
17079;SDS011;8655;57.106;-2.088;2023-04-01T08:33:42;5.27;;;2.20;;
17079;SDS011;8655;57.106;-2.088;2023-04-01T08:38:46;5.40;;;2.23;;
17079;SDS011;8655;57.106;-2.088;2023-04-01T08:41:26;5.90;;;2.30;;
17079;SDS011;8655;57.106;-2.088;2023-04-01T08:55:25;5.33;;;2.00;;
17079;SDS011;8655;57.106;-2.088;2023-04-01T09:00:55;4.68;;;2.40;;
17079;SDS011;8655;57.106;-2.088;2023-04-01T09:11:44;5.18;;;2.17;;
17079;SDS011;8655;57.106;-2.088;2023-04-01T09:17:29;5.23;;;2.23;;
17079;SDS011;8655;57.106;-2.088;2023-04-01T09:37:39;6.57;;;2.20;;
17079;SDS011;8655;57.106;-2.088;2023-04-01T09:45:41;6.43;;;2.47;;
17079;SDS011;8655;57.106;-2.088;2023-04-01T09:50:42;5.37;;;2.50;;
17079;SDS011;8655;57.106;-2.088;2023-04-01T10:14:08;4.57;;;2.20;;
17079;SDS011;8655;57.106;-2.088;2023-04-01T10:30:20;5.20;;;2.27;;
17079;SDS011;8655;57.106;-2.088;2023-04-01T10:44:33;6.43;;;2.20;;
17079;SDS011;8655;57.106;-2.088;2023-04-01T10:59:34;6.43;;;2.33;;
17079;SDS011;8655;57.106;-2.088;2023-04-01T11:05:08;6.27;;;2.40;;
17079;SDS011;8655;57.106;-2.088;2023-04-01T11:37:59;5.33;;;2.60;;
17079;SDS011;8655;57.106;-2.088;2023-04-01T11:40:40;6.13;;;2.40;;
17079;SDS011;8655;57.106;-2.088;2023-04-01T11:43:45;6.30;;;2.27;;
17079;SDS011;8655;57.106;-2.088;2023-04-01T11:55:20;4.97;;;2.73;;
17079;SDS011;8655;57.106;-2.088;2023-04-01T12:00:39;5.17;;;2.30;;
17079;SDS011;8655;57.106;-2.088;2023-04-01T12:14:18;5.77;;;2.40;;
17079;SDS011;8655;57.106;-2.088;2023-04-01T12:19:40;4.73;;;2.50;;
17079;SDS011;8655;57.106;-2.088;2023-04-01T12:30:30;5.73;;;2.43;;
17079;SDS011;8655;57.106;-2.088;2023-04-01T12:36:12;4.77;;;2.40;;
17079;SDS011;8655;57.106;-2.088;2023-04-01T12:42:19;7.20;;;2.87;;
17079;SDS011;8655;57.106;-2.088;2023-04-01T12:47:49;5.73;;;2.60;;
17079;SDS011;8655;57.106;-2.088;2023-04-01T12:50:19;5.40;;;2.40;;
17079;SDS011;8655;57.106;-2.088;2023-04-01T12:55:42;7.63;;;2.40;;
17079;SDS011;8655;57.106;-2.088;2023-04-01T13:09:40;5.63;;;2.77;;
17079;SDS011;8655;57.106;-2.088;2023-04-01T13:12:21;5.40;;;2.43;;
17079;SDS011;8655;57.106;-2.088;2023-04-01T13:25:33;5.60;;;2.40;;
17079;SDS011;8655;57.106;-2.088;2023-04-01T13:28:18;6.27;;;2.53;;
17079;SDS011;8655;57.106;-2.088;2023-04-01T13:31:02;4.23;;;2.13;;
17079;SDS011;8655;57.106;-2.088;2023-04-01T13:34:02;4.30;;;2.03;;
17079;SDS011;8655;57.106;-2.088;2023-04-01T13:42:33;6.37;;;2.57;;
17079;SDS011;8655;57.106;-2.088;2023-04-01T14:06:27;6.37;;;2.53;;
17079;SDS011;8655;57.106;-2.088;2023-04-01T14:09:24;6.10;;;2.53;;
17079;SDS011;8655;57.106;-2.088;2023-04-01T14:12:13;4.10;;;2.13;;
17079;SDS011;8655;57.106;-2.088;2023-04-01T14:21:40;5.90;;;2.40;;
17079;SDS011;8655;57.106;-2.088;2023-04-01T14:27:37;6.73;;;2.60;;
17079;SDS011;8655;57.106;-2.088;2023-04-01T14:36:02;3.60;;;2.20;;
17079;SDS011;8655;57.106;-2.088;2023-04-01T14:43:53;4.47;;;2.20;;
17079;SDS011;8655;57.106;-2.088;2023-04-01T14:47:04;5.03;;;2.57;;
17079;SDS011;8655;57.106;-2.088;2023-04-01T14:49:36;4.73;;;2.30;;
17079;SDS011;8655;57.106;-2.088;2023-04-01T14:52:15;5.93;;;2.30;;
17079;SDS011;8655;57.106;-2.088;2023-04-01T14:55:00;4.97;;;2.50;;
17079;SDS011;8655;57.106;-2.088;2023-04-01T14:57:42;5.03;;;2.40;;
17079;SDS011;8655;57.106;-2.088;2023-04-01T15:00:50;5.97;;;2.60;;
17079;SDS011;8655;57.106;-2.088;2023-04-01T15:03:36;5.90;;;2.70;;
17079;SDS011;8655;57.106;-2.088;2023-04-01T15:31:54;4.43;;;2.37;;
17079;SDS011;8655;57.106;-2.088;2023-04-01T15:36:53;4.70;;;2.43;;
17079;SDS011;8655;57.106;-2.088;2023-04-01T15:42:22;4.30;;;2.10;;
17079;SDS011;8655;57.106;-2.088;2023-04-01T15:53:54;4.27;;;2.30;;
17079;SDS011;8655;57.106;-2.088;2023-04-01T16:02:20;6.60;;;2.50;;
17079;SDS011;8655;57.106;-2.088;2023-04-01T16:05:09;4.27;;;2.33;;
17079;SDS011;8655;57.106;-2.088;2023-04-01T16:07:47;5.00;;;2.40;;
17079;SDS011;8655;57.106;-2.088;2023-04-01T16:10:38;5.43;;;2.50;;
17079;SDS011;8655;57.106;-2.088;2023-04-01T16:13:27;5.83;;;2.50;;
17079;SDS011;8655;57.106;-2.088;2023-04-01T16:15:59;5.90;;;2.67;;
17079;SDS011;8655;57.106;-2.088;2023-04-01T16:21:44;4.73;;;2.00;;
17079;SDS011;8655;57.106;-2.088;2023-04-01T16:24:19;5.00;;;2.20;;
17079;SDS011;8655;57.106;-2.088;2023-04-01T16:26:54;4.30;;;2.50;;
17079;SDS011;8655;57.106;-2.088;2023-04-01T16:32:14;7.60;;;2.93;;
17079;SDS011;8655;57.106;-2.088;2023-04-01T16:37:21;5.53;;;2.60;;
17079;SDS011;8655;57.106;-2.088;2023-04-01T16:42:58;5.43;;;2.47;;
17079;SDS011;8655;57.106;-2.088;2023-04-01T16:45:38;6.50;;;2.40;;
17079;SDS011;8655;57.106;-2.088;2023-04-01T16:48:34;8.07;;;2.77;;
17079;SDS011;8655;57.106;-2.088;2023-04-01T16:51:17;6.23;;;2.43;;
17079;SDS011;8655;57.106;-2.088;2023-04-01T16:53:48;5.27;;;2.57;;
17079;SDS011;8655;57.106;-2.088;2023-04-01T16:56:24;4.77;;;2.40;;
17079;SDS011;8655;57.106;-2.088;2023-04-01T16:59:03;7.70;;;2.50;;
17079;SDS011;8655;57.106;-2.088;2023-04-01T17:04:21;5.27;;;2.60;;
17079;SDS011;8655;57.106;-2.088;2023-04-01T17:12:32;5.37;;;2.43;;
17079;SDS011;8655;57.106;-2.088;2023-04-01T17:20:23;5.70;;;2.37;;
17079;SDS011;8655;57.106;-2.088;2023-04-01T17:33:30;7.20;;;2.53;;
17079;SDS011;8655;57.106;-2.088;2023-04-01T17:36:16;6.83;;;2.77;;
17079;SDS011;8655;57.106;-2.088;2023-04-01T17:42:19;5.73;;;2.87;;
17079;SDS011;8655;57.106;-2.088;2023-04-01T17:44:40;6.07;;;2.77;;
17079;SDS011;8655;57.106;-2.088;2023-04-01T17:49:51;5.40;;;2.60;;
17079;SDS011;8655;57.106;-2.088;2023-04-01T17:55:33;4.37;;;2.23;;
17079;SDS011;8655;57.106;-2.088;2023-04-01T18:12:33;4.93;;;2.40;;
17079;SDS011;8655;57.106;-2.088;2023-04-01T18:15:14;5.33;;;2.57;;
17079;SDS011;8655;57.106;-2.088;2023-04-01T18:18:09;6.30;;;2.63;;
17079;SDS011;8655;57.106;-2.088;2023-04-01T18:26:03;7.43;;;2.43;;
17079;SDS011;8655;57.106;-2.088;2023-04-01T18:31:40;6.63;;;2.73;;
17079;SDS011;8655;57.106;-2.088;2023-04-01T18:36:49;6.83;;;2.70;;
17079;SDS011;8655;57.106;-2.088;2023-04-01T18:39:17;7.60;;;3.00;;
17079;SDS011;8655;57.106;-2.088;2023-04-01T18:47:38;6.83;;;2.73;;
17079;SDS011;8655;57.106;-2.088;2023-04-01T18:52:59;6.47;;;2.63;;
17079;SDS011;8655;57.106;-2.088;2023-04-01T18:55:42;6.00;;;2.83;;
17079;SDS011;8655;57.106;-2.088;2023-04-01T18:58:17;5.73;;;2.80;;
17079;SDS011;8655;57.106;-2.088;2023-04-01T19:00:47;7.47;;;2.63;;
17079;SDS011;8655;57.106;-2.088;2023-04-01T19:06:44;6.87;;;2.83;;
17079;SDS011;8655;57.106;-2.088;2023-04-01T19:20:17;6.67;;;2.60;;
17079;SDS011;8655;57.106;-2.088;2023-04-01T19:25:43;6.40;;;2.83;;
17079;SDS011;8655;57.106;-2.088;2023-04-01T19:42:20;6.53;;;2.90;;
17079;SDS011;8655;57.106;-2.088;2023-04-01T19:50:43;9.00;;;3.50;;
17079;SDS011;8655;57.106;-2.088;2023-04-01T19:53:15;6.43;;;3.10;;
17079;SDS011;8655;57.106;-2.088;2023-04-01T19:58:50;7.00;;;3.40;;
17079;SDS011;8655;57.106;-2.088;2023-04-01T20:01:24;6.97;;;2.90;;
17079;SDS011;8655;57.106;-2.088;2023-04-01T20:03:55;6.77;;;2.50;;
17079;SDS011;8655;57.106;-2.088;2023-04-01T20:14:48;9.85;;;3.55;;
17079;SDS011;8655;57.106;-2.088;2023-04-01T20:27:47;7.28;;;3.30;;
17079;SDS011;8655;57.106;-2.088;2023-04-01T20:36:06;7.00;;;2.95;;
17079;SDS011;8655;57.106;-2.088;2023-04-01T20:41:58;7.17;;;2.93;;
17079;SDS011;8655;57.106;-2.088;2023-04-01T20:44:28;7.20;;;2.87;;
17079;SDS011;8655;57.106;-2.088;2023-04-01T21:09:02;7.10;;;3.00;;
17079;SDS011;8655;57.106;-2.088;2023-04-01T21:12:05;6.33;;;2.80;;
17079;SDS011;8655;57.106;-2.088;2023-04-01T21:35:48;9.40;;;2.87;;
17079;SDS011;8655;57.106;-2.088;2023-04-01T21:38:14;5.83;;;2.87;;
17079;SDS011;8655;57.106;-2.088;2023-04-01T21:46:54;6.83;;;3.20;;
17079;SDS011;8655;57.106;-2.088;2023-04-01T21:50:00;6.47;;;3.20;;
17079;SDS011;8655;57.106;-2.088;2023-04-01T21:55:53;6.27;;;3.07;;
17079;SDS011;8655;57.106;-2.088;2023-04-01T21:58:50;8.50;;;3.47;;
17079;SDS011;8655;57.106;-2.088;2023-04-01T22:04:14;8.33;;;3.30;;
17079;SDS011;8655;57.106;-2.088;2023-04-01T22:07:01;6.03;;;2.73;;
17079;SDS011;8655;57.106;-2.088;2023-04-01T22:09:38;6.30;;;3.10;;
17079;SDS011;8655;57.106;-2.088;2023-04-01T22:27:52;6.20;;;3.03;;
17079;SDS011;8655;57.106;-2.088;2023-04-01T22:30:24;6.00;;;2.93;;
17079;SDS011;8655;57.106;-2.088;2023-04-01T22:38:17;5.97;;;3.30;;
17079;SDS011;8655;57.106;-2.088;2023-04-01T22:41:02;8.97;;;3.47;;
17079;SDS011;8655;57.106;-2.088;2023-04-01T22:43:40;6.70;;;3.03;;
17079;SDS011;8655;57.106;-2.088;2023-04-01T22:51:46;8.50;;;2.93;;
17079;SDS011;8655;57.106;-2.088;2023-04-01T22:57:00;6.70;;;3.00;;
17079;SDS011;8655;57.106;-2.088;2023-04-01T22:59:36;8.57;;;3.50;;
17079;SDS011;8655;57.106;-2.088;2023-04-01T23:02:14;6.63;;;2.90;;
17079;SDS011;8655;57.106;-2.088;2023-04-01T23:04:45;7.03;;;2.97;;
17079;SDS011;8655;57.106;-2.088;2023-04-01T23:10:23;7.23;;;3.40;;
17079;SDS011;8655;57.106;-2.088;2023-04-01T23:12:55;7.80;;;3.20;;
17079;SDS011;8655;57.106;-2.088;2023-04-01T23:15:24;7.47;;;3.20;;
17079;SDS011;8655;57.106;-2.088;2023-04-01T23:17:54;7.83;;;3.33;;
17079;SDS011;8655;57.106;-2.088;2023-04-01T23:23:17;8.03;;;3.53;;
17079;SDS011;8655;57.106;-2.088;2023-04-01T23:28:36;7.80;;;3.50;;
17079;SDS011;8655;57.106;-2.088;2023-04-01T23:34:01;8.50;;;3.23;;
17079;SDS011;8655;57.106;-2.088;2023-04-01T23:36:30;7.63;;;3.63;;
17079;SDS011;8655;57.106;-2.088;2023-04-01T23:39:03;7.47;;;3.37;;
17079;SDS011;8655;57.106;-2.088;2023-04-01T23:41:32;7.83;;;3.80;;
17079;SDS011;8655;57.106;-2.088;2023-04-01T23:44:05;6.97;;;3.43;;
17079;SDS011;8655;57.106;-2.088;2023-04-01T23:46:37;6.30;;;3.07;;
17079;SDS011;8655;57.106;-2.088;2023-04-01T23:49:06;8.50;;;3.40;;
17079;SDS011;8655;57.106;-2.088;2023-04-01T23:51:49;7.80;;;3.53;;
17079;SDS011;8655;57.106;-2.088;2023-04-01T23:54:26;8.70;;;3.40;;
17079;SDS011;8655;57.106;-2.088;2023-04-01T23:56:59;5.77;;;3.00;;
